sensor_id;sensor_type;location;lat;lon;timestamp;pressure;altitude;pressure_sealevel;temperature;humidity
54872;BME280;43914;57.680;11.982;2022-07-29T00:00:43;101305.29;;;14.48;89.46
54872;BME280;43914;57.680;11.982;2022-07-29T00:03:14;101307.17;;;14.47;89.63
54872;BME280;43914;57.680;11.982;2022-07-29T00:05:39;101311.63;;;14.44;89.74
54872;BME280;43914;57.680;11.982;2022-07-29T00:08:06;101316.39;;;14.42;89.83
54872;BME280;43914;57.680;11.982;2022-07-29T00:10:33;101313.05;;;14.40;90.20
54872;BME280;43914;57.680;11.982;2022-07-29T00:12:59;101318.47;;;14.40;90.17
54872;BME280;43914;57.680;11.982;2022-07-29T00:15:25;101316.16;;;14.37;90.31
54872;BME280;43914;57.680;11.982;2022-07-29T00:17:51;101314.13;;;14.35;90.43
54872;BME280;43914;57.680;11.982;2022-07-29T00:20:17;101320.07;;;14.34;90.54
54872;BME280;43914;57.680;11.982;2022-07-29T00:22:42;101311.00;;;14.31;90.99
54872;BME280;43914;57.680;11.982;2022-07-29T00:25:08;101314.73;;;14.30;91.02
54872;BME280;43914;57.680;11.982;2022-07-29T00:27:35;101312.61;;;14.25;91.00
54872;BME280;43914;57.680;11.982;2022-07-29T00:30:03;101316.88;;;14.24;90.93
54872;BME280;43914;57.680;11.982;2022-07-29T00:32:30;101317.45;;;14.19;91.05
54872;BME280;43914;57.680;11.982;2022-07-29T00:34:55;101310.55;;;14.17;91.28
54872;BME280;43914;57.680;11.982;2022-07-29T00:37:40;101313.46;;;14.15;91.33
54872;BME280;43914;57.680;11.982;2022-07-29T00:40:07;101309.27;;;14.12;91.37
54872;BME280;43914;57.680;11.982;2022-07-29T00:42:47;101317.59;;;14.11;91.67
54872;BME280;43914;57.680;11.982;2022-07-29T00:45:15;101315.77;;;14.07;91.33
54872;BME280;43914;57.680;11.982;2022-07-29T00:47:42;101311.47;;;14.02;91.67
54872;BME280;43914;57.680;11.982;2022-07-29T00:50:11;101315.37;;;13.99;91.95
54872;BME280;43914;57.680;11.982;2022-07-29T00:52:39;101308.30;;;13.98;92.07
54872;BME280;43914;57.680;11.982;2022-07-29T00:55:08;101311.39;;;13.95;91.84
54872;BME280;43914;57.680;11.982;2022-07-29T00:57:35;101316.69;;;13.93;91.78
54872;BME280;43914;57.680;11.982;2022-07-29T01:00:08;101316.55;;;13.90;92.46
54872;BME280;43914;57.680;11.982;2022-07-29T01:02:36;101313.84;;;13.90;92.86
54872;BME280;43914;57.680;11.982;2022-07-29T01:05:04;101314.38;;;13.90;92.87
54872;BME280;43914;57.680;11.982;2022-07-29T01:07:34;101323.16;;;13.88;92.64
54872;BME280;43914;57.680;11.982;2022-07-29T01:10:03;101320.09;;;13.80;92.74
54872;BME280;43914;57.680;11.982;2022-07-29T01:12:30;101322.20;;;13.74;93.10
54872;BME280;43914;57.680;11.982;2022-07-29T01:15:00;101320.86;;;13.74;93.28
54872;BME280;43914;57.680;11.982;2022-07-29T01:26:23;101331.32;;;13.62;92.98
54872;BME280;43914;57.680;11.982;2022-07-29T01:32:19;101326.33;;;13.54;93.84
54872;BME280;43914;57.680;11.982;2022-07-29T01:34:57;101327.09;;;13.48;94.05
54872;BME280;43914;57.680;11.982;2022-07-29T01:40:29;101327.67;;;13.39;95.38
54872;BME280;43914;57.680;11.982;2022-07-29T01:42:57;101320.81;;;13.37;95.87
54872;BME280;43914;57.680;11.982;2022-07-29T01:45:48;101324.86;;;13.37;95.21
54872;BME280;43914;57.680;11.982;2022-07-29T01:48:46;101328.27;;;13.35;95.24
54872;BME280;43914;57.680;11.982;2022-07-29T01:51:19;101328.31;;;13.31;94.86
54872;BME280;43914;57.680;11.982;2022-07-29T01:53:55;101326.32;;;13.28;94.62
54872;BME280;43914;57.680;11.982;2022-07-29T01:56:29;101330.87;;;13.28;94.83
54872;BME280;43914;57.680;11.982;2022-07-29T01:58:59;101332.05;;;13.30;95.61
54872;BME280;43914;57.680;11.982;2022-07-29T02:01:27;101333.07;;;13.28;95.41
54872;BME280;43914;57.680;11.982;2022-07-29T02:03:56;101329.05;;;13.24;95.59
54872;BME280;43914;57.680;11.982;2022-07-29T02:06:24;101324.67;;;13.23;96.05
54872;BME280;43914;57.680;11.982;2022-07-29T02:08:52;101325.70;;;13.22;96.50
54872;BME280;43914;57.680;11.982;2022-07-29T02:11:19;101322.97;;;13.26;97.43
54872;BME280;43914;57.680;11.982;2022-07-29T02:13:46;101326.81;;;13.28;96.68
54872;BME280;43914;57.680;11.982;2022-07-29T02:16:14;101329.20;;;13.27;96.55
54872;BME280;43914;57.680;11.982;2022-07-29T02:18:42;101331.57;;;13.26;96.66
54872;BME280;43914;57.680;11.982;2022-07-29T02:21:11;101334.74;;;13.30;97.09
54872;BME280;43914;57.680;11.982;2022-07-29T02:23:38;101336.41;;;13.31;97.09
54872;BME280;43914;57.680;11.982;2022-07-29T02:26:06;101332.55;;;13.29;96.80
54872;BME280;43914;57.680;11.982;2022-07-29T02:28:33;101325.52;;;13.24;96.67
54872;BME280;43914;57.680;11.982;2022-07-29T02:31:01;101335.14;;;13.22;96.88
54872;BME280;43914;57.680;11.982;2022-07-29T02:33:29;101335.52;;;13.19;97.08
54872;BME280;43914;57.680;11.982;2022-07-29T02:35:56;101330.83;;;13.17;97.85
54872;BME280;43914;57.680;11.982;2022-07-29T02:38:25;101334.12;;;13.23;98.16
54872;BME280;43914;57.680;11.982;2022-07-29T02:44:12;101341.17;;;13.13;96.69
54872;BME280;43914;57.680;11.982;2022-07-29T02:46:37;101332.23;;;13.13;97.02
54872;BME280;43914;57.680;11.982;2022-07-29T02:49:10;101340.32;;;13.13;97.12
54872;BME280;43914;57.680;11.982;2022-07-29T02:52:00;101333.25;;;13.12;97.36
54872;BME280;43914;57.680;11.982;2022-07-29T02:57:04;101345.92;;;13.11;97.00
54872;BME280;43914;57.680;11.982;2022-07-29T02:59:34;101347.12;;;13.09;97.17
54872;BME280;43914;57.680;11.982;2022-07-29T03:02:02;101345.63;;;13.06;97.25
54872;BME280;43914;57.680;11.982;2022-07-29T03:04:30;101344.47;;;13.05;97.42
54872;BME280;43914;57.680;11.982;2022-07-29T03:06:59;101351.72;;;13.04;97.45
54872;BME280;43914;57.680;11.982;2022-07-29T03:09:27;101357.77;;;13.06;98.16
54872;BME280;43914;57.680;11.982;2022-07-29T03:11:54;101356.56;;;13.09;98.39
54872;BME280;43914;57.680;11.982;2022-07-29T03:14:21;101359.77;;;13.08;98.13
54872;BME280;43914;57.680;11.982;2022-07-29T03:16:50;101357.91;;;13.09;98.02
54872;BME280;43914;57.680;11.982;2022-07-29T03:19:18;101355.05;;;13.10;98.46
54872;BME280;43914;57.680;11.982;2022-07-29T03:21:45;101353.70;;;13.10;98.08
54872;BME280;43914;57.680;11.982;2022-07-29T03:24:30;101355.55;;;13.10;98.16
54872;BME280;43914;57.680;11.982;2022-07-29T03:26:57;101357.54;;;13.12;98.47
54872;BME280;43914;57.680;11.982;2022-07-29T03:29:24;101355.17;;;13.13;98.58
54872;BME280;43914;57.680;11.982;2022-07-29T03:31:51;101352.14;;;13.12;98.45
54872;BME280;43914;57.680;11.982;2022-07-29T03:34:17;101345.92;;;13.11;98.42
54872;BME280;43914;57.680;11.982;2022-07-29T03:36:43;101349.45;;;13.12;98.63
54872;BME280;43914;57.680;11.982;2022-07-29T03:39:10;101355.37;;;13.11;98.22
54872;BME280;43914;57.680;11.982;2022-07-29T03:41:39;101351.67;;;13.08;98.25
54872;BME280;43914;57.680;11.982;2022-07-29T03:44:07;101355.55;;;13.10;98.61
54872;BME280;43914;57.680;11.982;2022-07-29T03:46:37;101351.65;;;13.12;99.34
54872;BME280;43914;57.680;11.982;2022-07-29T03:49:05;101354.47;;;13.15;99.44
54872;BME280;43914;57.680;11.982;2022-07-29T03:51:33;101357.32;;;13.18;99.63
54872;BME280;43914;57.680;11.982;2022-07-29T03:54:02;101354.42;;;13.19;99.46
54872;BME280;43914;57.680;11.982;2022-07-29T03:56:29;101353.72;;;13.21;99.43
54872;BME280;43914;57.680;11.982;2022-07-29T03:58:58;101352.69;;;13.22;99.55
54872;BME280;43914;57.680;11.982;2022-07-29T04:01:24;101355.71;;;13.23;99.58
54872;BME280;43914;57.680;11.982;2022-07-29T04:03:51;101353.86;;;13.24;99.56
54872;BME280;43914;57.680;11.982;2022-07-29T04:06:17;101357.04;;;13.27;100.00
54872;BME280;43914;57.680;11.982;2022-07-29T04:08:43;101356.02;;;13.28;99.83
54872;BME280;43914;57.680;11.982;2022-07-29T04:11:09;101352.29;;;13.30;99.62
54872;BME280;43914;57.680;11.982;2022-07-29T04:13:35;101355.64;;;13.32;99.89
54872;BME280;43914;57.680;11.982;2022-07-29T04:16:01;101357.11;;;13.34;99.85
54872;BME280;43914;57.680;11.982;2022-07-29T04:18:27;101357.58;;;13.38;99.84
54872;BME280;43914;57.680;11.982;2022-07-29T04:20:53;101361.11;;;13.43;99.93
54872;BME280;43914;57.680;11.982;2022-07-29T04:23:18;101354.48;;;13.45;99.85
54872;BME280;43914;57.680;11.982;2022-07-29T04:25:44;101358.63;;;13.52;100.00
54872;BME280;43914;57.680;11.982;2022-07-29T04:28:10;101363.11;;;13.55;100.00
54872;BME280;43914;57.680;11.982;2022-07-29T04:30:36;101362.55;;;13.60;100.00
54872;BME280;43914;57.680;11.982;2022-07-29T04:33:05;101360.65;;;13.65;100.00
54872;BME280;43914;57.680;11.982;2022-07-29T04:35:36;101355.69;;;13.68;100.00
54872;BME280;43914;57.680;11.982;2022-07-29T04:38:03;101364.26;;;13.72;100.00
54872;BME280;43914;57.680;11.982;2022-07-29T04:40:31;101356.09;;;13.76;100.00
54872;BME280;43914;57.680;11.982;2022-07-29T04:42:59;101359.05;;;13.81;100.00
54872;BME280;43914;57.680;11.982;2022-07-29T04:45:27;101358.17;;;13.85;100.00
54872;BME280;43914;57.680;11.982;2022-07-29T04:47:54;101360.31;;;13.90;99.99
54872;BME280;43914;57.680;11.982;2022-07-29T04:50:21;101363.91;;;13.97;100.00
54872;BME280;43914;57.680;11.982;2022-07-29T04:52:48;101365.70;;;14.00;100.00
54872;BME280;43914;57.680;11.982;2022-07-29T04:55:14;101368.38;;;14.05;99.83
54872;BME280;43914;57.680;11.982;2022-07-29T04:57:40;101368.30;;;14.09;99.77
54872;BME280;43914;57.680;11.982;2022-07-29T05:00:06;101375.81;;;14.13;99.60
54872;BME280;43914;57.680;11.982;2022-07-29T05:02:33;101367.14;;;14.18;99.40
54872;BME280;43914;57.680;11.982;2022-07-29T05:04:59;101369.27;;;14.23;99.33
54872;BME280;43914;57.680;11.982;2022-07-29T05:07:25;101374.94;;;14.28;99.22
54872;BME280;43914;57.680;11.982;2022-07-29T05:09:50;101372.87;;;14.30;98.90
54872;BME280;43914;57.680;11.982;2022-07-29T05:12:17;101371.77;;;14.35;98.75
54872;BME280;43914;57.680;11.982;2022-07-29T05:14:43;101369.20;;;14.38;98.53
54872;BME280;43914;57.680;11.982;2022-07-29T05:17:09;101368.49;;;14.40;98.37
54872;BME280;43914;57.680;11.982;2022-07-29T05:19:35;101376.53;;;14.44;98.33
54872;BME280;43914;57.680;11.982;2022-07-29T05:22:01;101372.72;;;14.49;98.18
54872;BME280;43914;57.680;11.982;2022-07-29T05:24:26;101372.16;;;14.54;98.00
54872;BME280;43914;57.680;11.982;2022-07-29T05:26:52;101370.41;;;14.57;98.01
54872;BME280;43914;57.680;11.982;2022-07-29T05:29:18;101367.73;;;14.64;97.98
54872;BME280;43914;57.680;11.982;2022-07-29T05:31:44;101370.17;;;14.69;98.00
54872;BME280;43914;57.680;11.982;2022-07-29T05:34:10;101364.53;;;14.75;98.05
54872;BME280;43914;57.680;11.982;2022-07-29T05:36:36;101370.83;;;14.82;97.75
54872;BME280;43914;57.680;11.982;2022-07-29T05:39:04;101362.13;;;14.87;97.50
54872;BME280;43914;57.680;11.982;2022-07-29T05:41:32;101361.83;;;14.93;97.43
54872;BME280;43914;57.680;11.982;2022-07-29T05:43:58;101359.58;;;14.96;97.44
54872;BME280;43914;57.680;11.982;2022-07-29T05:46:23;101357.95;;;15.02;97.05
54872;BME280;43914;57.680;11.982;2022-07-29T05:48:50;101359.95;;;15.04;96.89
54872;BME280;43914;57.680;11.982;2022-07-29T05:51:15;101369.34;;;15.08;96.65
54872;BME280;43914;57.680;11.982;2022-07-29T05:53:41;101368.30;;;15.09;96.53
54872;BME280;43914;57.680;11.982;2022-07-29T05:56:07;101366.67;;;15.15;96.61
54872;BME280;43914;57.680;11.982;2022-07-29T05:58:33;101369.94;;;15.21;96.79
54872;BME280;43914;57.680;11.982;2022-07-29T06:00:59;101368.81;;;15.26;96.54
54872;BME280;43914;57.680;11.982;2022-07-29T06:03:26;101365.20;;;15.30;95.87
54872;BME280;43914;57.680;11.982;2022-07-29T06:05:52;101371.66;;;15.36;96.19
54872;BME280;43914;57.680;11.982;2022-07-29T06:08:18;101368.36;;;15.40;96.23
54872;BME280;43914;57.680;11.982;2022-07-29T06:10:44;101364.97;;;15.49;95.98
54872;BME280;43914;57.680;11.982;2022-07-29T06:13:11;101370.20;;;15.57;96.03
54872;BME280;43914;57.680;11.982;2022-07-29T06:15:37;101366.17;;;15.64;95.93
54872;BME280;43914;57.680;11.982;2022-07-29T06:18:03;101365.55;;;15.69;95.27
54872;BME280;43914;57.680;11.982;2022-07-29T06:20:31;101365.98;;;15.72;94.79
54872;BME280;43914;57.680;11.982;2022-07-29T06:22:58;101366.08;;;15.75;94.05
54872;BME280;43914;57.680;11.982;2022-07-29T06:25:24;101370.81;;;15.77;93.19
54872;BME280;43914;57.680;11.982;2022-07-29T06:27:50;101370.81;;;15.77;92.80
54872;BME280;43914;57.680;11.982;2022-07-29T06:30:16;101378.21;;;15.79;92.28
54872;BME280;43914;57.680;11.982;2022-07-29T06:32:41;101377.27;;;15.83;91.68
54872;BME280;43914;57.680;11.982;2022-07-29T06:35:08;101372.59;;;15.87;91.38
54872;BME280;43914;57.680;11.982;2022-07-29T06:37:34;101380.25;;;15.95;91.21
54872;BME280;43914;57.680;11.982;2022-07-29T06:40:00;101377.03;;;16.02;91.11
54872;BME280;43914;57.680;11.982;2022-07-29T06:42:44;101380.20;;;16.12;90.87
54872;BME280;43914;57.680;11.982;2022-07-29T06:45:11;101373.09;;;16.18;90.13
54872;BME280;43914;57.680;11.982;2022-07-29T06:47:37;101378.23;;;16.24;90.00
54872;BME280;43914;57.680;11.982;2022-07-29T06:50:05;101383.36;;;16.29;89.74
54872;BME280;43914;57.680;11.982;2022-07-29T06:52:31;101372.91;;;16.33;89.48
54872;BME280;43914;57.680;11.982;2022-07-29T06:54:57;101369.78;;;16.36;89.37
54872;BME280;43914;57.680;11.982;2022-07-29T06:57:25;101370.95;;;16.44;89.22
54872;BME280;43914;57.680;11.982;2022-07-29T06:59:51;101373.56;;;16.49;88.52
54872;BME280;43914;57.680;11.982;2022-07-29T07:02:17;101368.76;;;16.51;88.00
54872;BME280;43914;57.680;11.982;2022-07-29T07:04:43;101381.80;;;16.58;87.74
54872;BME280;43914;57.680;11.982;2022-07-29T07:07:08;101383.05;;;16.62;87.27
54872;BME280;43914;57.680;11.982;2022-07-29T07:09:34;101380.84;;;16.68;87.07
54872;BME280;43914;57.680;11.982;2022-07-29T07:12:00;101375.42;;;16.68;86.27
54872;BME280;43914;57.680;11.982;2022-07-29T07:14:26;101380.65;;;16.70;85.30
54872;BME280;43914;57.680;11.982;2022-07-29T07:16:53;101378.67;;;16.75;84.99
54872;BME280;43914;57.680;11.982;2022-07-29T07:19:19;101373.45;;;16.80;84.77
54872;BME280;43914;57.680;11.982;2022-07-29T07:21:44;101376.16;;;16.86;84.78
54872;BME280;43914;57.680;11.982;2022-07-29T07:24:10;101381.98;;;16.90;84.63
54872;BME280;43914;57.680;11.982;2022-07-29T07:26:36;101376.98;;;16.94;84.52
54872;BME280;43914;57.680;11.982;2022-07-29T07:29:03;101382.80;;;16.97;84.37
54872;BME280;43914;57.680;11.982;2022-07-29T07:31:29;101378.36;;;17.00;84.41
54872;BME280;43914;57.680;11.982;2022-07-29T07:33:54;101378.64;;;17.08;84.32
54872;BME280;43914;57.680;11.982;2022-07-29T07:36:20;101374.76;;;17.13;84.12
54872;BME280;43914;57.680;11.982;2022-07-29T07:38:47;101377.70;;;17.19;83.98
54872;BME280;43914;57.680;11.982;2022-07-29T07:41:13;101383.01;;;17.23;84.02
54872;BME280;43914;57.680;11.982;2022-07-29T07:43:39;101382.34;;;17.27;83.54
54872;BME280;43914;57.680;11.982;2022-07-29T07:46:04;101385.06;;;17.27;82.93
54872;BME280;43914;57.680;11.982;2022-07-29T07:48:30;101388.41;;;17.29;82.63
54872;BME280;43914;57.680;11.982;2022-07-29T07:50:56;101381.83;;;17.35;82.60
54872;BME280;43914;57.680;11.982;2022-07-29T07:53:24;101383.06;;;17.39;82.28
54872;BME280;43914;57.680;11.982;2022-07-29T07:55:50;101385.13;;;17.43;81.69
54872;BME280;43914;57.680;11.982;2022-07-29T07:58:16;101385.53;;;17.47;81.16
54872;BME280;43914;57.680;11.982;2022-07-29T08:00:42;101388.12;;;17.51;80.09
54872;BME280;43914;57.680;11.982;2022-07-29T08:03:08;101386.75;;;17.58;80.27
54872;BME280;43914;57.680;11.982;2022-07-29T08:05:33;101383.78;;;17.66;80.13
54872;BME280;43914;57.680;11.982;2022-07-29T08:07:59;101387.91;;;17.76;79.79
54872;BME280;43914;57.680;11.982;2022-07-29T08:10:25;101385.09;;;17.80;79.54
54872;BME280;43914;57.680;11.982;2022-07-29T08:13:09;101388.68;;;17.89;78.92
54872;BME280;43914;57.680;11.982;2022-07-29T08:15:39;101390.66;;;17.92;78.53
54872;BME280;43914;57.680;11.982;2022-07-29T08:18:07;101389.40;;;17.94;78.32
54872;BME280;43914;57.680;11.982;2022-07-29T08:20:33;101390.42;;;18.00;78.47
54872;BME280;43914;57.680;11.982;2022-07-29T08:23:01;101391.00;;;18.09;78.78
54872;BME280;43914;57.680;11.982;2022-07-29T08:25:28;101391.72;;;18.13;77.50
54872;BME280;43914;57.680;11.982;2022-07-29T08:27:54;101394.13;;;18.12;77.58
54872;BME280;43914;57.680;11.982;2022-07-29T08:30:20;101388.12;;;18.20;77.16
54872;BME280;43914;57.680;11.982;2022-07-29T08:32:47;101390.80;;;18.26;76.95
54872;BME280;43914;57.680;11.982;2022-07-29T08:35:13;101390.97;;;18.31;76.41
54872;BME280;43914;57.680;11.982;2022-07-29T08:37:39;101390.18;;;18.40;75.55
54872;BME280;43914;57.680;11.982;2022-07-29T08:40:06;101386.70;;;18.42;75.09
54872;BME280;43914;57.680;11.982;2022-07-29T08:42:32;101388.53;;;18.49;74.67
54872;BME280;43914;57.680;11.982;2022-07-29T08:45:00;101384.86;;;18.52;74.03
54872;BME280;43914;57.680;11.982;2022-07-29T08:47:27;101387.58;;;18.52;74.18
54872;BME280;43914;57.680;11.982;2022-07-29T08:49:53;101393.09;;;18.55;73.89
54872;BME280;43914;57.680;11.982;2022-07-29T08:52:20;101384.05;;;18.61;74.09
54872;BME280;43914;57.680;11.982;2022-07-29T08:54:47;101385.27;;;18.65;73.88
54872;BME280;43914;57.680;11.982;2022-07-29T08:57:14;101382.01;;;18.66;73.45
54872;BME280;43914;57.680;11.982;2022-07-29T08:59:42;101384.38;;;18.71;73.24
54872;BME280;43914;57.680;11.982;2022-07-29T09:02:19;101383.27;;;18.79;73.41
54872;BME280;43914;57.680;11.982;2022-07-29T09:04:39;101391.59;;;18.84;73.55
54872;BME280;43914;57.680;11.982;2022-07-29T09:07:06;101390.09;;;18.88;73.56
54872;BME280;43914;57.680;11.982;2022-07-29T09:09:33;101390.09;;;18.88;73.52
54872;BME280;43914;57.680;11.982;2022-07-29T09:12:01;101392.59;;;18.90;72.84
54872;BME280;43914;57.680;11.982;2022-07-29T09:14:29;101389.27;;;18.88;73.03
54872;BME280;43914;57.680;11.982;2022-07-29T09:16:55;101389.99;;;18.86;72.93
54872;BME280;43914;57.680;11.982;2022-07-29T09:19:35;101391.35;;;18.86;72.98
54872;BME280;43914;57.680;11.982;2022-07-29T09:22:06;101391.98;;;18.88;73.26
54872;BME280;43914;57.680;11.982;2022-07-29T09:24:46;101396.08;;;18.88;73.24
54872;BME280;43914;57.680;11.982;2022-07-29T09:27:21;101398.25;;;18.88;73.40
54872;BME280;43914;57.680;11.982;2022-07-29T09:30:05;101389.27;;;18.88;73.68
54872;BME280;43914;57.680;11.982;2022-07-29T09:32:33;101396.98;;;18.91;73.61
54872;BME280;43914;57.680;11.982;2022-07-29T09:35:22;101388.20;;;18.89;73.85
54872;BME280;43914;57.680;11.982;2022-07-29T09:37:46;101398.34;;;18.91;73.66
54872;BME280;43914;57.680;11.982;2022-07-29T09:40:15;101398.05;;;18.90;73.87
54872;BME280;43914;57.680;11.982;2022-07-29T09:42:42;101395.08;;;18.92;73.63
54872;BME280;43914;57.680;11.982;2022-07-29T09:45:09;101395.78;;;18.96;73.66
54872;BME280;43914;57.680;11.982;2022-07-29T09:47:43;101397.54;;;19.00;73.35
54872;BME280;43914;57.680;11.982;2022-07-29T09:50:11;101395.72;;;19.03;73.09
54872;BME280;43914;57.680;11.982;2022-07-29T09:52:48;101387.40;;;18.98;72.97
54872;BME280;43914;57.680;11.982;2022-07-29T09:55:17;101391.70;;;18.96;72.46
54872;BME280;43914;57.680;11.982;2022-07-29T09:57:45;101391.79;;;18.99;72.59
54872;BME280;43914;57.680;11.982;2022-07-29T10:00:19;101387.64;;;19.06;72.46
54872;BME280;43914;57.680;11.982;2022-07-29T10:02:44;101380.77;;;19.12;72.36
54872;BME280;43914;57.680;11.982;2022-07-29T10:05:23;101386.16;;;19.19;72.75
54872;BME280;43914;57.680;11.982;2022-07-29T10:07:52;101390.97;;;19.17;71.67
54872;BME280;43914;57.680;11.982;2022-07-29T10:10:22;101385.40;;;19.21;70.90
54872;BME280;43914;57.680;11.982;2022-07-29T10:12:55;101376.52;;;19.26;70.39
54872;BME280;43914;57.680;11.982;2022-07-29T10:15:23;101384.72;;;19.35;70.32
54872;BME280;43914;57.680;11.982;2022-07-29T10:17:52;101376.14;;;19.41;69.65
54872;BME280;43914;57.680;11.982;2022-07-29T10:20:20;101379.25;;;19.44;69.62
54872;BME280;43914;57.680;11.982;2022-07-29T10:22:48;101372.14;;;19.43;68.90
54872;BME280;43914;57.680;11.982;2022-07-29T10:25:16;101381.98;;;19.44;68.72
54872;BME280;43914;57.680;11.982;2022-07-29T10:27:43;101380.25;;;19.50;68.51
54872;BME280;43914;57.680;11.982;2022-07-29T10:30:12;101375.52;;;19.48;67.91
54872;BME280;43914;57.680;11.982;2022-07-29T10:32:58;101375.00;;;19.49;67.69
54872;BME280;43914;57.680;11.982;2022-07-29T10:39:33;101371.45;;;19.57;67.49
54872;BME280;43914;57.680;11.982;2022-07-29T10:44:41;101371.23;;;19.89;66.52
54872;BME280;43914;57.680;11.982;2022-07-29T10:47:18;101364.23;;;20.03;66.34
54872;BME280;43914;57.680;11.982;2022-07-29T10:50:04;101367.12;;;20.20;65.87
54872;BME280;43914;57.680;11.982;2022-07-29T10:55:39;101365.41;;;20.50;64.99
54872;BME280;43914;57.680;11.982;2022-07-29T11:00:46;101362.15;;;20.74;63.76
54872;BME280;43914;57.680;11.982;2022-07-29T11:03:46;101366.39;;;20.79;62.95
54872;BME280;43914;57.680;11.982;2022-07-29T11:06:13;101371.22;;;20.65;62.79
54872;BME280;43914;57.680;11.982;2022-07-29T11:08:40;101366.49;;;20.60;62.63
54872;BME280;43914;57.680;11.982;2022-07-29T11:13:51;101360.86;;;20.88;61.78
54872;BME280;43914;57.680;11.982;2022-07-29T11:16:21;101354.20;;;20.96;61.22
54872;BME280;43914;57.680;11.982;2022-07-29T11:21:44;101344.50;;;21.15;60.68
54872;BME280;43914;57.680;11.982;2022-07-29T11:24:18;101352.69;;;21.27;60.27
54872;BME280;43914;57.680;11.982;2022-07-29T11:27:07;101349.30;;;21.37;59.96
54872;BME280;43914;57.680;11.982;2022-07-29T11:29:54;101359.69;;;21.49;59.85
54872;BME280;43914;57.680;11.982;2022-07-29T11:32:23;101354.41;;;21.59;58.89
54872;BME280;43914;57.680;11.982;2022-07-29T11:35:18;101349.00;;;21.62;58.53
54872;BME280;43914;57.680;11.982;2022-07-29T11:41:22;101351.08;;;21.69;57.76
54872;BME280;43914;57.680;11.982;2022-07-29T11:43:52;101358.14;;;21.68;57.50
54872;BME280;43914;57.680;11.982;2022-07-29T11:46:46;101353.17;;;21.65;57.53
54872;BME280;43914;57.680;11.982;2022-07-29T11:49:22;101355.77;;;21.71;58.04
54872;BME280;43914;57.680;11.982;2022-07-29T11:51:52;101353.97;;;21.77;58.13
54872;BME280;43914;57.680;11.982;2022-07-29T11:54:25;101356.21;;;21.80;57.40
54872;BME280;43914;57.680;11.982;2022-07-29T11:56:59;101345.20;;;21.78;57.21
54872;BME280;43914;57.680;11.982;2022-07-29T11:59:25;101353.47;;;21.80;57.37
54872;BME280;43914;57.680;11.982;2022-07-29T12:01:54;101342.55;;;21.83;56.87
54872;BME280;43914;57.680;11.982;2022-07-29T12:04:24;101338.31;;;21.89;56.64
54872;BME280;43914;57.680;11.982;2022-07-29T12:06:53;101344.56;;;22.02;56.53
54872;BME280;43914;57.680;11.982;2022-07-29T12:09:20;101332.15;;;22.14;56.50
54872;BME280;43914;57.680;11.982;2022-07-29T12:11:47;101341.72;;;22.28;54.76
54872;BME280;43914;57.680;11.982;2022-07-29T12:14:28;101342.06;;;22.32;54.44
54872;BME280;43914;57.680;11.982;2022-07-29T12:16:56;101332.79;;;22.36;53.81
54872;BME280;43914;57.680;11.982;2022-07-29T12:19:22;101339.50;;;22.45;53.63
54872;BME280;43914;57.680;11.982;2022-07-29T12:21:51;101339.66;;;22.53;52.62
54872;BME280;43914;57.680;11.982;2022-07-29T12:24:18;101335.09;;;22.58;52.41
54872;BME280;43914;57.680;11.982;2022-07-29T12:26:53;101336.95;;;22.72;51.60
54872;BME280;43914;57.680;11.982;2022-07-29T12:29:20;101329.36;;;22.80;51.16
54872;BME280;43914;57.680;11.982;2022-07-29T12:31:51;101329.83;;;22.94;50.58
54872;BME280;43914;57.680;11.982;2022-07-29T12:34:19;101334.45;;;23.10;50.17
54872;BME280;43914;57.680;11.982;2022-07-29T12:36:48;101338.24;;;23.26;49.72
54872;BME280;43914;57.680;11.982;2022-07-29T12:39:17;101330.12;;;23.37;48.93
54872;BME280;43914;57.680;11.982;2022-07-29T12:41:44;101325.59;;;23.50;48.33
54872;BME280;43914;57.680;11.982;2022-07-29T12:44:11;101328.25;;;23.67;48.80
54872;BME280;43914;57.680;11.982;2022-07-29T12:46:37;101325.16;;;23.86;47.59
54872;BME280;43914;57.680;11.982;2022-07-29T12:49:03;101325.55;;;24.00;48.28
54872;BME280;43914;57.680;11.982;2022-07-29T12:51:31;101333.13;;;24.17;46.11
54872;BME280;43914;57.680;11.982;2022-07-29T12:56:41;101328.21;;;24.55;45.88
54872;BME280;43914;57.680;11.982;2022-07-29T12:59:19;101328.63;;;24.76;45.62
54872;BME280;43914;57.680;11.982;2022-07-29T13:01:47;101316.87;;;24.86;44.12
54872;BME280;43914;57.680;11.982;2022-07-29T13:04:26;101331.30;;;25.14;44.35
54872;BME280;43914;57.680;11.982;2022-07-29T13:07:03;101327.52;;;25.33;43.82
54872;BME280;43914;57.680;11.982;2022-07-29T13:09:45;101316.61;;;25.54;43.42
54872;BME280;43914;57.680;11.982;2022-07-29T13:12:13;101329.86;;;25.81;42.59
54872;BME280;43914;57.680;11.982;2022-07-29T13:14:45;101325.47;;;25.98;41.42
54872;BME280;43914;57.680;11.982;2022-07-29T13:17:19;101322.46;;;26.20;41.60
54872;BME280;43914;57.680;11.982;2022-07-29T13:20:07;101324.12;;;26.36;40.41
54872;BME280;43914;57.680;11.982;2022-07-29T13:22:36;101317.22;;;26.44;40.24
54872;BME280;43914;57.680;11.982;2022-07-29T13:25:02;101315.55;;;26.48;39.16
54872;BME280;43914;57.680;11.982;2022-07-29T13:27:31;101314.16;;;26.61;39.54
54872;BME280;43914;57.680;11.982;2022-07-29T13:30:00;101311.62;;;26.81;40.46
54872;BME280;43914;57.680;11.982;2022-07-29T13:32:27;101308.80;;;27.06;40.05
54872;BME280;43914;57.680;11.982;2022-07-29T13:34:55;101312.28;;;27.25;38.02